Time;durP1;ratioP1;P1;durP2;ratioP2;P2;SDS_P1;SDS_P2;PMS_P1;PMS_P2;Temp;Humidity;BMP_temperature;BMP_pressure;BME280_temperature;BME280_humidity;BME280_pressure;Samples;Min_cycle;Max_cycle;Signal;HPM_P1;HPM_P2
2022/04/02 00:00:39;;;;;;;;;12.50;10.75;;;;;;;;5061358;28;45512;-80
2022/04/02 00:03:05;;;;;;;;;14.00;12.00;;;;;;;;5077432;27;45411;-81
2022/04/02 00:05:30;;;;;;;;;13.25;11.00;;;;;;;;5074999;27;46448;-79
2022/04/02 00:07:55;;;;;;;;;10.50;10.00;;;;;;;;5074173;28;45462;-81
2022/04/02 00:10:21;;;;;;;;;12.75;9.50;;;;;;;;5074544;28;45448;-81
2022/04/02 00:12:46;;;;;;;;;10.50;10.50;;;;;;;;5057114;28;45332;-80
2022/04/02 00:15:11;;;;;;;;;9.00;8.75;;;;;;;;5075129;28;47283;-80
2022/04/02 00:17:36;;;;;;;;;13.00;11.75;;;;;;;;5073608;28;45542;-80
2022/04/02 00:20:04;;;;;;;;;9.75;9.00;;;;;;;;5074563;27;45557;-80
2022/04/02 00:22:29;;;;;;;;;10.75;9.00;;;;;;;;5074746;27;45458;-80
2022/04/02 00:24:54;;;;;;;;;12.75;8.00;;;;;;;;5074209;28;46387;-81
2022/04/02 00:27:19;;;;;;;;;10.50;10.25;;;;;;;;5075348;27;45304;-80
2022/04/02 00:29:45;;;;;;;;;8.00;7.75;;;;;;;;5061993;28;45509;-80
2022/04/02 00:32:10;;;;;;;;;8.00;7.00;;;;;;;;5069720;28;45410;-80
2022/04/02 00:34:35;;;;;;;;;6.50;6.25;;;;;;;;5074607;28;45465;-80
2022/04/02 00:37:00;;;;;;;;;7.75;7.50;;;;;;;;5074572;28;45434;-80
2022/04/02 00:39:25;;;;;;;;;11.00;8.25;;;;;;;;5075037;28;45276;-81
2022/04/02 00:41:51;;;;;;;;;9.00;7.50;;;;;;;;5075048;28;45312;-80
2022/04/02 00:44:17;;;;;;;;;8.50;6.00;;;;;;;;5073972;28;46006;-80
2022/04/02 00:46:43;;;;;;;;;8.00;7.25;;;;;;;;5074469;27;45456;-81
2022/04/02 00:49:09;;;;;;;;;8.25;7.25;;;;;;;;5067151;27;45528;-81
2022/04/02 00:51:41;;;;;;;;;6.50;6.50;;;;;;;;5058393;27;45466;-80
2022/04/02 00:54:08;;;;;;;;;8.25;6.75;;;;;;;;5073518;28;46116;-81
2022/04/02 00:56:34;;;;;;;;;4.50;4.50;;;;;;;;5063562;27;46843;-81
2022/04/02 00:58:59;;;;;;;;;13.00;8.25;;;;;;;;5068323;28;45303;-80
2022/04/02 01:01:24;;;;;;;;;6.75;6.75;;;;;;;;5071464;28;45567;-80
2022/04/02 01:03:50;;;;;;;;;3.75;3.75;;;;;;;;5074439;28;45586;-80
2022/04/02 01:06:16;;;;;;;;;9.00;6.25;;;;;;;;5061355;27;45468;-80
2022/04/02 01:08:41;;;;;;;;;8.75;7.75;;;;;;;;5073568;28;45334;-80
2022/04/02 01:11:07;;;;;;;;;3.50;3.50;;;;;;;;5074335;28;45484;-80
2022/04/02 01:13:32;;;;;;;;;7.50;7.00;;;;;;;;5074187;27;46642;-80
2022/04/02 01:15:57;;;;;;;;;5.75;4.50;;;;;;;;5074501;28;45425;-80
2022/04/02 01:18:23;;;;;;;;;4.00;4.00;;;;;;;;5074732;27;45424;-80
2022/04/02 01:20:48;;;;;;;;;2.50;2.50;;;;;;;;5072481;28;45575;-80
2022/04/02 01:23:14;;;;;;;;;6.50;6.00;;;;;;;;5073464;27;46209;-80
2022/04/02 01:25:39;;;;;;;;;4.50;4.50;;;;;;;;5072216;27;45350;-80
2022/04/02 01:28:04;;;;;;;;;4.50;4.00;;;;;;;;5074382;28;45527;-80
2022/04/02 01:30:30;;;;;;;;;6.25;6.25;;;;;;;;5057712;27;45407;-80
2022/04/02 01:32:56;;;;;;;;;5.00;5.00;;;;;;;;5074016;27;46317;-80
2022/04/02 01:35:22;;;;;;;;;4.00;4.00;;;;;;;;5070373;27;45318;-81
2022/04/02 01:37:48;;;;;;;;;2.50;2.50;;;;;;;;5073694;27;45484;-80
2022/04/02 01:40:13;;;;;;;;;6.00;4.00;;;;;;;;5074235;27;45525;-80
2022/04/02 01:42:38;;;;;;;;;4.25;4.25;;;;;;;;5073191;27;47116;-81
2022/04/02 01:45:04;;;;;;;;;7.25;5.25;;;;;;;;5059722;28;45307;-81
2022/04/02 01:47:29;;;;;;;;;3.25;3.25;;;;;;;;5071526;28;45516;-80
2022/04/02 01:49:55;;;;;;;;;3.00;3.00;;;;;;;;5074213;27;45536;-79
2022/04/02 01:52:20;;;;;;;;;3.00;2.00;;;;;;;;5073381;28;47074;-81
2022/04/02 01:54:46;;;;;;;;;6.50;4.50;;;;;;;;5073598;27;45371;-79
2022/04/02 01:57:11;;;;;;;;;6.00;6.00;;;;;;;;5074578;27;45479;-79
2022/04/02 01:59:38;;;;;;;;;3.50;3.00;;;;;;;;5073574;28;45467;-79
2022/04/02 02:02:04;;;;;;;;;5.75;3.25;;;;;;;;5073906;28;47383;-78
2022/04/02 02:04:29;;;;;;;;;5.75;3.75;;;;;;;;5071763;27;45500;-79
2022/04/02 02:06:54;;;;;;;;;8.50;6.00;;;;;;;;5058309;28;45450;-80
2022/04/02 02:09:19;;;;;;;;;6.00;3.75;;;;;;;;5061896;28;45390;-80
2022/04/02 02:11:45;;;;;;;;;6.25;6.25;;;;;;;;5065475;28;47103;-79
2022/04/02 02:14:10;;;;;;;;;11.25;7.00;;;;;;;;5065642;28;45533;-80
2022/04/02 02:16:35;;;;;;;;;5.75;3.75;;;;;;;;5066796;28;45413;-80
2022/04/02 02:19:00;;;;;;;;;6.25;6.00;;;;;;;;5076950;28;45454;-80
2022/04/02 02:21:26;;;;;;;;;6.00;6.00;;;;;;;;5076476;27;45208;-80
2022/04/02 02:23:52;;;;;;;;;6.75;5.50;;;;;;;;5076927;27;45296;-78
2022/04/02 02:26:17;;;;;;;;;5.00;5.00;;;;;;;;5075489;28;45341;-80
2022/04/02 02:28:43;;;;;;;;;8.75;7.75;;;;;;;;5074065;28;45312;-80
2022/04/02 02:31:08;;;;;;;;;6.25;3.75;;;;;;;;5063320;28;46265;-80
2022/04/02 02:36:17;;;;;;;;;5.75;5.00;;;;;;;;5076726;28;45279;-80
2022/04/02 02:38:43;;;;;;;;;11.00;6.25;;;;;;;;5076594;28;45580;-80
2022/04/02 02:41:10;;;;;;;;;9.25;8.00;;;;;;;;5073602;27;45555;-81
2022/04/02 02:43:35;;;;;;;;;8.00;7.50;;;;;;;;5076384;27;45618;-79
2022/04/02 02:46:00;;;;;;;;;7.50;7.00;;;;;;;;5077105;27;45462;-81
2022/04/02 02:48:26;;;;;;;;;4.00;4.00;;;;;;;;5060393;28;45327;-80
2022/04/02 02:50:51;;;;;;;;;4.00;4.00;;;;;;;;5076404;27;45440;-81
2022/04/02 02:53:16;;;;;;;;;8.50;5.75;;;;;;;;5076447;28;45333;-80
2022/04/02 02:55:44;;;;;;;;;6.25;6.25;;;;;;;;5074928;28;45382;-80
2022/04/02 02:58:09;;;;;;;;;7.75;7.75;;;;;;;;5073524;27;45366;-81
2022/04/02 03:00:34;;;;;;;;;5.75;5.50;;;;;;;;5076319;28;45508;-79
2022/04/02 03:02:59;;;;;;;;;10.75;7.50;;;;;;;;5076811;28;45460;-80
2022/04/02 03:05:25;;;;;;;;;5.25;5.25;;;;;;;;5075999;28;45419;-80
2022/04/02 03:07:50;;;;;;;;;7.25;6.50;;;;;;;;5076203;27;45487;-80
2022/04/02 03:10:17;;;;;;;;;8.25;6.50;;;;;;;;5075771;27;45950;-80
2022/04/02 03:12:42;;;;;;;;;6.50;5.50;;;;;;;;5075911;27;45461;-80
2022/04/02 03:15:07;;;;;;;;;7.00;7.00;;;;;;;;5076461;27;45522;-80
2022/04/02 03:17:33;;;;;;;;;8.75;8.75;;;;;;;;5073590;27;45436;-80
2022/04/02 03:19:58;;;;;;;;;6.25;6.25;;;;;;;;5074241;27;47418;-80
2022/04/02 03:22:24;;;;;;;;;7.50;7.00;;;;;;;;5073668;28;45461;-80
2022/04/02 03:24:50;;;;;;;;;10.75;8.75;;;;;;;;5059507;28;45401;-80
2022/04/02 03:27:15;;;;;;;;;6.75;6.75;;;;;;;;5060506;27;45644;-79
2022/04/02 03:29:40;;;;;;;;;7.50;6.25;;;;;;;;5074683;28;47447;-79
2022/04/02 03:32:06;;;;;;;;;8.00;7.00;;;;;;;;5074113;28;45524;-79
2022/04/02 03:34:31;;;;;;;;;8.00;7.00;;;;;;;;5075519;27;45823;-79
2022/04/02 03:36:56;;;;;;;;;6.50;6.25;;;;;;;;5075523;28;45330;-81
2022/04/02 03:39:21;;;;;;;;;8.50;5.75;;;;;;;;5076033;28;45428;-79
2022/04/02 03:41:47;;;;;;;;;8.25;7.75;;;;;;;;5075752;28;45474;-79
2022/04/02 03:44:12;;;;;;;;;7.00;7.00;;;;;;;;5075748;28;45529;-80
2022/04/02 03:49:22;;;;;;;;;5.50;5.50;;;;;;;;5073353;28;45608;-80
2022/04/02 03:51:47;;;;;;;;;12.00;10.00;;;;;;;;5074917;28;45337;-80
2022/04/02 03:54:13;;;;;;;;;9.50;9.25;;;;;;;;5075860;28;45399;-79
2022/04/02 03:56:38;;;;;;;;;6.50;6.50;;;;;;;;5074883;28;45350;-79
2022/04/02 03:59:03;;;;;;;;;12.25;12.25;;;;;;;;5072938;28;46916;-79
2022/04/02 04:01:28;;;;;;;;;5.25;5.25;;;;;;;;5074787;28;45438;-79
2022/04/02 04:03:54;;;;;;;;;8.00;8.00;;;;;;;;5073578;28;45436;-80
2022/04/02 04:06:19;;;;;;;;;11.50;7.75;;;;;;;;5059837;28;45309;-80
2022/04/02 04:08:44;;;;;;;;;9.75;6.75;;;;;;;;5074447;28;45932;-78
2022/04/02 04:11:10;;;;;;;;;11.00;8.00;;;;;;;;5074569;28;45421;-80
2022/04/02 04:13:35;;;;;;;;;11.00;8.25;;;;;;;;5074777;28;45425;-80
2022/04/02 04:16:01;;;;;;;;;10.25;9.75;;;;;;;;5074985;28;45283;-77
2022/04/02 04:18:27;;;;;;;;;9.75;7.75;;;;;;;;5058875;28;46332;-77
2022/04/02 04:20:53;;;;;;;;;9.50;6.00;;;;;;;;5075134;27;45350;-80
2022/04/02 04:23:18;;;;;;;;;8.75;6.75;;;;;;;;5064254;28;45475;-79
2022/04/02 04:25:43;;;;;;;;;9.00;8.50;;;;;;;;5065838;28;45537;-79
2022/04/02 04:28:08;;;;;;;;;6.25;6.25;;;;;;;;5074900;28;46336;-79
2022/04/02 04:30:34;;;;;;;;;6.50;6.25;;;;;;;;5074762;27;45539;-80
2022/04/02 04:32:59;;;;;;;;;8.75;8.50;;;;;;;;5075181;28;45292;-79
2022/04/02 04:35:24;;;;;;;;;11.00;11.00;;;;;;;;5074740;28;45319;-80
2022/04/02 04:37:51;;;;;;;;;6.50;6.50;;;;;;;;5074747;27;45641;-80
2022/04/02 04:40:17;;;;;;;;;10.00;9.25;;;;;;;;5074383;27;45369;-79
2022/04/02 04:42:42;;;;;;;;;6.50;6.25;;;;;;;;5074410;27;45303;-79
2022/04/02 04:45:07;;;;;;;;;9.00;6.25;;;;;;;;5060501;28;45310;-79
2022/04/02 04:47:32;;;;;;;;;11.00;9.75;;;;;;;;5072926;28;45586;-79
2022/04/02 04:49:58;;;;;;;;;7.00;7.00;;;;;;;;5073303;28;45509;-80
2022/04/02 04:52:23;;;;;;;;;8.75;7.75;;;;;;;;5062862;28;45475;-79
2022/04/02 04:54:48;;;;;;;;;9.25;9.25;;;;;;;;5074084;28;45287;-79
2022/04/02 04:57:13;;;;;;;;;7.50;6.50;;;;;;;;5071405;28;45475;-80
2022/04/02 04:59:38;;;;;;;;;9.50;9.50;;;;;;;;5072595;28;45504;-79
2022/04/02 05:02:04;;;;;;;;;6.50;6.25;;;;;;;;5074021;28;45456;-81
2022/04/02 05:04:30;;;;;;;;;7.25;5.75;;;;;;;;5074050;27;45524;-80
2022/04/02 05:06:55;;;;;;;;;10.00;10.00;;;;;;;;5074321;28;45448;-80
2022/04/02 05:09:20;;;;;;;;;6.00;6.00;;;;;;;;5074787;27;45563;-80
2022/04/02 05:11:46;;;;;;;;;8.25;7.50;;;;;;;;5068526;27;45254;-80
2022/04/02 05:14:13;;;;;;;;;6.75;5.50;;;;;;;;5065098;28;45454;-80
2022/04/02 05:16:38;;;;;;;;;11.00;9.50;;;;;;;;5064725;28;46174;-80
2022/04/02 05:19:03;;;;;;;;;7.75;7.50;;;;;;;;5073901;28;45394;-81
2022/04/02 05:21:29;;;;;;;;;9.25;9.25;;;;;;;;5074287;27;45342;-79
2022/04/02 05:23:54;;;;;;;;;8.75;8.75;;;;;;;;5061962;28;45431;-80
2022/04/02 05:26:19;;;;;;;;;13.75;12.00;;;;;;;;5071122;28;45404;-80
2022/04/02 05:28:44;;;;;;;;;9.50;7.75;;;;;;;;5074011;28;45509;-80
2022/04/02 05:31:10;;;;;;;;;10.75;9.50;;;;;;;;5074532;28;45233;-82
2022/04/02 05:33:35;;;;;;;;;11.50;8.50;;;;;;;;5058063;28;45358;-83
2022/04/02 05:36:00;;;;;;;;;14.75;9.75;;;;;;;;5074723;27;47163;-84
2022/04/02 05:38:27;;;;;;;;;7.00;7.00;;;;;;;;5072113;28;45410;-84
2022/04/02 05:40:52;;;;;;;;;10.75;10.00;;;;;;;;5074098;28;45438;-83
2022/04/02 05:43:17;;;;;;;;;15.00;10.00;;;;;;;;5077233;28;45951;-84
2022/04/02 05:45:43;;;;;;;;;10.25;9.50;;;;;;;;5077504;27;46635;-83
2022/04/02 05:48:08;;;;;;;;;6.00;6.00;;;;;;;;5078207;27;45302;-83
2022/04/02 05:50:33;;;;;;;;;11.00;9.75;;;;;;;;5077515;28;45519;-80
2022/04/02 05:53:00;;;;;;;;;7.75;7.75;;;;;;;;5077463;28;45252;-82
2022/04/02 05:55:25;;;;;;;;;10.25;6.75;;;;;;;;5076184;28;47310;-82
2022/04/02 05:57:50;;;;;;;;;7.00;6.00;;;;;;;;5077181;28;45267;-83
2022/04/02 06:00:17;;;;;;;;;7.00;7.00;;;;;;;;5079427;27;45450;-83
2022/04/02 06:02:43;;;;;;;;;10.25;9.50;;;;;;;;5067975;27;45352;-81
2022/04/02 06:05:09;;;;;;;;;2.00;2.00;;;;;;;;5073048;28;45508;-81
2022/04/02 06:07:35;;;;;;;;;7.75;7.75;;;;;;;;5077265;27;45383;-82
2022/04/02 06:10:02;;;;;;;;;9.50;6.00;;;;;;;;5075549;28;45433;-82
2022/04/02 06:12:28;;;;;;;;;13.25;11.25;;;;;;;;5077018;27;45498;-82
2022/04/02 06:14:53;;;;;;;;;9.00;8.50;;;;;;;;5063445;28;48074;-81
2022/04/02 06:17:18;;;;;;;;;8.00;6.75;;;;;;;;5071694;27;45412;-85
2022/04/02 06:19:43;;;;;;;;;7.75;6.25;;;;;;;;5089554;27;45529;-84
2022/04/02 06:22:09;;;;;;;;;7.00;6.75;;;;;;;;5081673;28;45608;-85
2022/04/02 06:24:35;;;;;;;;;11.25;8.00;;;;;;;;5078493;28;45414;-83
2022/04/02 06:27:00;;;;;;;;;11.00;7.25;;;;;;;;5077116;27;45437;-84
2022/04/02 06:29:25;;;;;;;;;6.75;6.25;;;;;;;;5077083;28;45326;-85
2022/04/02 06:31:51;;;;;;;;;10.75;6.50;;;;;;;;5072903;28;45631;-84
2022/04/02 06:34:16;;;;;;;;;7.50;7.50;;;;;;;;5063846;28;45335;-84
2022/04/02 06:36:41;;;;;;;;;9.25;9.00;;;;;;;;5076835;27;45368;-84
2022/04/02 06:39:06;;;;;;;;;9.00;9.00;;;;;;;;5076000;28;45306;-84
2022/04/02 06:41:32;;;;;;;;;7.00;7.00;;;;;;;;5068820;28;45698;-85
2022/04/02 06:43:57;;;;;;;;;12.25;8.50;;;;;;;;5069294;28;45291;-84
2022/04/02 06:46:22;;;;;;;;;6.75;6.25;;;;;;;;5075983;28;45329;-81
2022/04/02 06:48:47;;;;;;;;;8.00;6.25;;;;;;;;5076392;27;45609;-76
2022/04/02 06:51:13;;;;;;;;;7.25;6.25;;;;;;;;5074243;27;45539;-83
2022/04/02 06:53:40;;;;;;;;;12.25;8.00;;;;;;;;5074283;27;47405;-83
2022/04/02 06:56:05;;;;;;;;;4.50;3.00;;;;;;;;5075449;28;45322;-82
2022/04/02 06:58:32;;;;;;;;;3.00;3.00;;;;;;;;5076003;28;45540;-84
2022/04/02 07:00:57;;;;;;;;;8.00;7.25;;;;;;;;5075667;27;45334;-83
2022/04/02 07:03:22;;;;;;;;;7.25;7.25;;;;;;;;5073004;28;45581;-84
2022/04/02 07:05:48;;;;;;;;;6.00;6.00;;;;;;;;5076311;28;45409;-85
2022/04/02 07:08:13;;;;;;;;;8.50;7.00;;;;;;;;5075728;27;45455;-84
2022/04/02 07:10:38;;;;;;;;;8.00;8.00;;;;;;;;5075486;28;45448;-85
2022/04/02 07:13:03;;;;;;;;;7.00;7.00;;;;;;;;5075826;28;45268;-85
2022/04/02 07:15:29;;;;;;;;;4.50;3.00;;;;;;;;5075928;28;45473;-84
2022/04/02 07:17:54;;;;;;;;;6.00;3.50;;;;;;;;5077252;28;45275;-85
2022/04/02 07:20:25;;;;;;;;;9.00;6.75;;;;;;;;5069716;28;45369;-85
2022/04/02 07:22:50;;;;;;;;;7.00;7.00;;;;;;;;5067356;28;47042;-85
2022/04/02 07:25:18;;;;;;;;;7.75;7.75;;;;;;;;5073443;27;45438;-85
2022/04/02 07:27:44;;;;;;;;;7.00;7.00;;;;;;;;5075715;27;45338;-85
2022/04/02 07:30:11;;;;;;;;;7.75;5.25;;;;;;;;5062017;27;45485;-84
2022/04/02 07:32:36;;;;;;;;;6.00;6.00;;;;;;;;5073972;28;45409;-85
2022/04/02 07:35:01;;;;;;;;;7.75;6.00;;;;;;;;5075924;27;45431;-84
2022/04/02 07:37:45;;;;;;;;;5.00;4.75;;;;;;;;5077068;27;45444;-84
2022/04/02 07:40:18;;;;;;;;;8.25;6.50;;;;;;;;5075324;28;45492;-85
2022/04/02 07:42:49;;;;;;;;;6.00;6.00;;;;;;;;5074915;27;46161;-85
2022/04/02 07:45:18;;;;;;;;;11.00;7.50;;;;;;;;5074318;27;45426;-87
2022/04/02 07:47:48;;;;;;;;;6.00;5.25;;;;;;;;5075442;28;45585;-87
2022/04/02 07:50:14;;;;;;;;;7.50;7.00;;;;;;;;5070349;27;45657;-85
2022/04/02 07:52:50;;;;;;;;;9.00;8.00;;;;;;;;5074897;27;46290;-84
2022/04/02 07:55:16;;;;;;;;;9.25;8.00;;;;;;;;5073543;27;45541;-86
2022/04/02 07:57:46;;;;;;;;;4.50;4.50;;;;;;;;5073242;27;45417;-85
2022/04/02 08:00:12;;;;;;;;;7.25;7.25;;;;;;;;5061892;27;45439;-85
2022/04/02 08:02:46;;;;;;;;;7.00;7.00;;;;;;;;5073893;28;46071;-84
2022/04/02 08:05:13;;;;;;;;;9.75;8.75;;;;;;;;5066181;27;45247;-85
2022/04/02 08:07:43;;;;;;;;;9.00;7.00;;;;;;;;5066982;28;45495;-85
2022/04/02 08:10:12;;;;;;;;;4.25;3.25;;;;;;;;5075075;27;45460;-86
2022/04/02 08:12:38;;;;;;;;;9.00;6.00;;;;;;;;5074645;27;47024;-86
2022/04/02 08:15:05;;;;;;;;;5.00;5.00;;;;;;;;5060656;27;45355;-86
2022/04/02 08:17:31;;;;;;;;;9.75;6.25;;;;;;;;5072576;28;45385;-86
2022/04/02 08:19:57;;;;;;;;;4.00;3.75;;;;;;;;5075125;27;45473;-86
2022/04/02 08:22:22;;;;;;;;;4.75;3.50;;;;;;;;5077000;27;46575;-86
2022/04/02 08:24:47;;;;;;;;;3.25;3.25;;;;;;;;5073177;27;45536;-86
2022/04/02 08:27:35;;;;;;;;;6.25;6.25;;;;;;;;5076150;28;45302;-85
2022/04/02 08:30:06;;;;;;;;;7.25;5.50;;;;;;;;5061688;28;45296;-84
2022/04/02 08:32:45;;;;;;;;;4.00;4.00;;;;;;;;5072879;28;46384;-86
2022/04/02 08:35:10;;;;;;;;;4.50;3.75;;;;;;;;5070789;27;45595;-84
2022/04/02 08:37:55;;;;;;;;;5.25;4.25;;;;;;;;5072073;27;45374;-83
2022/04/02 08:40:29;;;;;;;;;3.75;3.75;;;;;;;;5062614;28;45321;-85
2022/04/02 08:43:07;;;;;;;;;4.00;3.25;;;;;;;;5059843;28;46172;-85
2022/04/02 08:45:33;;;;;;;;;4.00;4.00;;;;;;;;5074139;27;45613;-81
2022/04/02 08:48:10;;;;;;;;;6.50;6.50;;;;;;;;5073027;28;45344;-83
2022/04/02 08:50:36;;;;;;;;;5.25;5.00;;;;;;;;5073679;28;45458;-81
2022/04/02 08:53:11;;;;;;;;;5.75;5.75;;;;;;;;5075777;27;46371;-81
2022/04/02 08:55:36;;;;;;;;;4.50;4.25;;;;;;;;5072178;28;45546;-82
2022/04/02 08:58:16;;;;;;;;;5.50;4.50;;;;;;;;5059268;28;45500;-81
2022/04/02 09:00:43;;;;;;;;;4.75;4.50;;;;;;;;5057531;27;45365;-79
2022/04/02 09:03:28;;;;;;;;;4.00;4.00;;;;;;;;5065193;27;47052;-79
2022/04/02 09:06:03;;;;;;;;;4.00;2.75;;;;;;;;5059326;28;45286;-80
2022/04/02 09:08:31;;;;;;;;;5.50;5.50;;;;;;;;5061693;28;45432;-78
2022/04/02 09:11:02;;;;;;;;;14.00;12.50;;;;;;;;5066295;28;45733;-80
2022/04/02 09:13:33;;;;;;;;;4.25;4.25;;;;;;;;5073052;28;47187;-80
2022/04/02 09:16:05;;;;;;;;;6.25;6.00;;;;;;;;5073109;28;45421;-80
2022/04/02 09:18:35;;;;;;;;;4.25;4.25;;;;;;;;5060397;27;45415;-81
2022/04/02 09:21:01;;;;;;;;;9.75;6.00;;;;;;;;5077027;27;45342;-81
2022/04/02 09:23:45;;;;;;;;;5.00;4.00;;;;;;;;5074834;27;47497;-80
2022/04/02 09:26:29;;;;;;;;;5.00;5.00;;;;;;;;5078957;27;45455;-79
2022/04/02 09:28:54;;;;;;;;;4.75;4.75;;;;;;;;5074521;28;45508;-81
2022/04/02 09:31:46;;;;;;;;;3.75;3.75;;;;;;;;5061679;28;45511;-82
2022/04/02 09:34:11;;;;;;;;;6.25;5.25;;;;;;;;5064980;28;45944;-83
2022/04/02 09:36:59;;;;;;;;;6.50;4.00;;;;;;;;5075262;28;45355;-83
2022/04/02 09:39:27;;;;;;;;;5.50;4.75;;;;;;;;5030502;28;45537;-82
2022/04/02 09:41:58;;;;;;;;;4.00;4.00;;;;;;;;5034277;28;45772;-82
2022/04/02 09:44:39;;;;;;;;;7.50;6.00;;;;;;;;5032524;28;45614;-83
2022/04/02 09:47:09;;;;;;;;;7.75;5.00;;;;;;;;5033985;28;45345;-88
2022/04/02 09:49:41;;;;;;;;;8.50;6.25;;;;;;;;5034513;28;45512;-88
2022/04/02 09:52:07;;;;;;;;;4.75;4.75;;;;;;;;5030112;28;45405;-86
2022/04/02 09:54:44;;;;;;;;;6.75;6.00;;;;;;;;5028529;28;45553;-88
2022/04/02 09:57:21;;;;;;;;;5.50;5.50;;;;;;;;5039229;28;45359;-86
2022/04/02 09:59:47;;;;;;;;;6.00;4.00;;;;;;;;5023104;28;45411;-85
2022/04/02 10:02:21;;;;;;;;;7.00;5.50;;;;;;;;5028165;28;45416;-86
2022/04/02 10:04:59;;;;;;;;;5.00;2.00;;;;;;;;5030154;28;45406;-86
2022/04/02 10:07:24;;;;;;;;;4.25;3.25;;;;;;;;5033899;28;45446;-87
2022/04/02 10:09:53;;;;;;;;;4.50;4.00;;;;;;;;5023630;28;45379;-84
2022/04/02 10:12:18;;;;;;;;;5.00;3.00;;;;;;;;5014333;28;45423;-85
2022/04/02 10:14:44;;;;;;;;;6.50;5.75;;;;;;;;5032420;28;45583;-85
2022/04/02 10:17:12;;;;;;;;;3.75;3.00;;;;;;;;5067170;28;45407;-85
2022/04/02 10:19:41;;;;;;;;;3.00;3.00;;;;;;;;5075380;27;45536;-86
2022/04/02 10:22:10;;;;;;;;;6.50;5.00;;;;;;;;5065848;28;45598;-85
2022/04/02 10:24:39;;;;;;;;;3.00;3.00;;;;;;;;5076299;27;46260;-87
2022/04/02 10:27:06;;;;;;;;;3.75;3.50;;;;;;;;5076943;28;45527;-90
2022/04/02 10:30:11;;;;;;;;;5.50;4.50;;;;;;;;5076363;27;45943;-85
2022/04/02 10:32:44;;;;;;;;;3.00;1.25;;;;;;;;4988685;28;45539;-87
2022/04/02 10:35:11;;;;;;;;;3.75;3.00;;;;;;;;4983148;28;46450;-83
2022/04/02 10:37:39;;;;;;;;;2.00;2.00;;;;;;;;4987779;28;45446;-83
2022/04/02 10:40:08;;;;;;;;;3.00;3.00;;;;;;;;4994237;28;45490;-85
2022/04/02 10:42:35;;;;;;;;;5.00;3.25;;;;;;;;4985141;28;45420;-87
2022/04/02 10:45:05;;;;;;;;;6.00;5.00;;;;;;;;4994490;28;46350;-84
2022/04/02 10:47:32;;;;;;;;;5.50;3.75;;;;;;;;4993105;28;45395;-84
2022/04/02 10:50:03;;;;;;;;;3.50;3.50;;;;;;;;4992555;28;45514;-84
2022/04/02 10:52:28;;;;;;;;;4.00;4.00;;;;;;;;4992877;28;45472;-80
2022/04/02 10:54:54;;;;;;;;;5.50;4.50;;;;;;;;4985263;28;47553;-84
2022/04/02 10:57:19;;;;;;;;;6.00;6.00;;;;;;;;4993511;28;45527;-77
2022/04/02 10:59:47;;;;;;;;;5.00;5.00;;;;;;;;4990616;28;45560;-76
2022/04/02 11:02:22;;;;;;;;;12.75;11.00;;;;;;;;4970719;28;45454;-80
2022/04/02 11:04:56;;;;;;;;;4.75;4.00;;;;;;;;5067483;28;47259;-79
2022/04/02 11:07:37;;;;;;;;;4.75;4.75;;;;;;;;5065805;27;45287;-80
2022/04/02 11:10:03;;;;;;;;;3.50;2.50;;;;;;;;5063520;28;45439;-83
2022/04/02 11:12:28;;;;;;;;;3.75;3.75;;;;;;;;5058679;27;46126;-84
2022/04/02 11:14:56;;;;;;;;;4.00;4.00;;;;;;;;5075308;28;46082;-81
2022/04/02 11:17:29;;;;;;;;;3.00;3.00;;;;;;;;5074985;27;45333;-81
2022/04/02 11:20:21;;;;;;;;;2.00;2.00;;;;;;;;5074891;27;45333;-84
2022/04/02 11:22:49;;;;;;;;;2.00;2.00;;;;;;;;5070438;28;45401;-84
2022/04/02 11:25:35;;;;;;;;;2.00;2.00;;;;;;;;5075207;27;46978;-83
2022/04/02 11:28:20;;;;;;;;;6.00;4.50;;;;;;;;5059688;28;45442;-85
2022/04/02 11:30:46;;;;;;;;;4.00;4.00;;;;;;;;5058027;27;45508;-77
2022/04/02 11:33:15;;;;;;;;;4.25;4.00;;;;;;;;5075087;27;45406;-77
2022/04/02 11:35:48;;;;;;;;;3.25;3.25;;;;;;;;5074263;27;45313;-77
2022/04/02 11:38:20;;;;;;;;;4.00;4.00;;;;;;;;5073541;27;46126;-76
2022/04/02 11:40:52;;;;;;;;;2.75;2.75;;;;;;;;5073757;28;45439;-76
2022/04/02 11:43:17;;;;;;;;;6.00;6.00;;;;;;;;5074047;28;45509;-75
2022/04/02 11:45:45;;;;;;;;;3.75;3.75;;;;;;;;5073358;27;46368;-73
2022/04/02 11:48:11;;;;;;;;;2.75;2.50;;;;;;;;5074760;27;45455;-74
2022/04/02 11:50:38;;;;;;;;;3.25;3.25;;;;;;;;5072307;28;45158;-75
2022/04/02 11:53:04;;;;;;;;;2.00;2.00;;;;;;;;5068381;27;45587;-74
2022/04/02 11:55:33;;;;;;;;;2.00;2.00;;;;;;;;5062300;28;45529;-75
2022/04/02 11:58:03;;;;;;;;;2.25;2.25;;;;;;;;5073573;27;45442;-75
2022/04/02 12:00:29;;;;;;;;;2.50;2.50;;;;;;;;5072987;28;45474;-76
2022/04/02 12:02:55;;;;;;;;;4.00;4.00;;;;;;;;5060482;28;45443;-76
2022/04/02 12:05:21;;;;;;;;;2.25;2.25;;;;;;;;5069534;28;45380;-75
2022/04/02 12:07:47;;;;;;;;;3.50;3.50;;;;;;;;5073410;27;45386;-75
2022/04/02 12:10:13;;;;;;;;;3.25;2.00;;;;;;;;5073446;27;45831;-76
2022/04/02 12:12:48;;;;;;;;;2.50;2.50;;;;;;;;5073463;27;45416;-74
2022/04/02 12:15:15;;;;;;;;;4.00;2.75;;;;;;;;5072881;27;45452;-75
2022/04/02 12:17:40;;;;;;;;;2.00;2.00;;;;;;;;5072761;27;45503;-76
2022/04/02 12:20:10;;;;;;;;;4.50;3.00;;;;;;;;5072473;27;45283;-78
2022/04/02 12:22:38;;;;;;;;;2.50;2.50;;;;;;;;5073273;27;45442;-77
2022/04/02 12:25:04;;;;;;;;;3.25;3.25;;;;;;;;5072587;28;47156;-75
2022/04/02 12:27:31;;;;;;;;;2.00;2.00;;;;;;;;5073449;27;45475;-77
2022/04/02 12:29:57;;;;;;;;;4.00;3.00;;;;;;;;5073152;27;45182;-78
2022/04/02 12:32:29;;;;;;;;;2.50;2.50;;;;;;;;5065097;27;45483;-77
2022/04/02 12:34:56;;;;;;;;;5.00;5.00;;;;;;;;5065617;28;47394;-78
2022/04/02 12:37:22;;;;;;;;;3.00;3.00;;;;;;;;5072971;27;45387;-78
2022/04/02 12:39:48;;;;;;;;;2.33;2.33;;;;;;;;5072657;27;45453;-77
2022/04/02 12:42:13;;;;;;;;;3.67;3.67;;;;;;;;5073400;27;45379;-77
2022/04/02 12:44:38;;;;;;;;;4.25;4.00;;;;;;;;5062738;28;47450;-77
2022/04/02 12:47:07;;;;;;;;;5.00;5.00;;;;;;;;5066751;28;45427;-78
2022/04/02 12:49:35;;;;;;;;;5.00;4.00;;;;;;;;5072486;27;45445;-75
2022/04/02 12:52:13;;;;;;;;;4.00;4.00;;;;;;;;5072819;27;45378;-75
2022/04/02 12:54:47;;;;;;;;;5.50;5.50;;;;;;;;5067832;27;47247;-77
2022/04/02 12:57:15;;;;;;;;;5.00;5.00;;;;;;;;5057363;27;45310;-75
2022/04/02 12:59:41;;;;;;;;;5.75;4.75;;;;;;;;5068151;28;45329;-76
2022/04/02 13:02:06;;;;;;;;;3.00;3.00;;;;;;;;5061005;28;45374;-76
2022/04/02 13:04:32;;;;;;;;;7.25;6.25;;;;;;;;5072332;28;46570;-75
2022/04/02 13:06:59;;;;;;;;;6.25;6.25;;;;;;;;5070662;28;45504;-77
2022/04/02 13:09:32;;;;;;;;;3.75;3.75;;;;;;;;5072593;27;45382;-75
2022/04/02 13:11:58;;;;;;;;;3.50;3.50;;;;;;;;5064037;27;45534;-75
2022/04/02 13:14:25;;;;;;;;;6.00;5.25;;;;;;;;5072258;27;45986;-75
2022/04/02 13:17:09;;;;;;;;;4.75;4.75;;;;;;;;5068744;27;45367;-77
2022/04/02 13:22:28;;;;;;;;;4.25;4.25;;;;;;;;5072364;28;45459;-75
2022/04/02 13:24:58;;;;;;;;;3.75;3.75;;;;;;;;5071169;28;48063;-74
2022/04/02 13:27:32;;;;;;;;;5.25;5.25;;;;;;;;5067570;28;45473;-77
2022/04/02 13:29:57;;;;;;;;;4.00;4.00;;;;;;;;5059038;28;45522;-74
2022/04/02 13:32:23;;;;;;;;;4.00;4.00;;;;;;;;5068788;28;45620;-75
2022/04/02 13:35:04;;;;;;;;;5.50;5.00;;;;;;;;5068785;28;45683;-75
2022/04/02 13:37:42;;;;;;;;;4.50;4.50;;;;;;;;5059618;28;45505;-75
2022/04/02 13:40:11;;;;;;;;;4.25;3.50;;;;;;;;5056725;28;45925;-75
2022/04/02 13:42:50;;;;;;;;;5.00;4.00;;;;;;;;5071555;27;45376;-74
2022/04/02 13:45:16;;;;;;;;;4.75;4.25;;;;;;;;5071352;28;45490;-75
2022/04/02 13:47:43;;;;;;;;;6.75;6.00;;;;;;;;5066106;27;46338;-75
2022/04/02 13:50:10;;;;;;;;;3.75;3.50;;;;;;;;5067150;27;45327;-77
2022/04/02 13:52:37;;;;;;;;;6.50;5.00;;;;;;;;5070108;27;45449;-76
2022/04/02 13:55:13;;;;;;;;;4.00;4.00;;;;;;;;5057863;28;46297;-74
2022/04/02 13:57:39;;;;;;;;;4.75;4.75;;;;;;;;5072188;27;45571;-74
2022/04/02 14:00:06;;;;;;;;;4.25;4.25;;;;;;;;5073105;28;45357;-73
2022/04/02 14:02:33;;;;;;;;;5.25;5.25;;;;;;;;5071597;27;45429;-74
2022/04/02 14:05:17;;;;;;;;;6.00;5.00;;;;;;;;5067300;27;46565;-75
2022/04/02 14:08:00;;;;;;;;;4.50;3.50;;;;;;;;5064296;28;45488;-74
2022/04/02 14:10:33;;;;;;;;;7.75;6.75;;;;;;;;5062023;28;45342;-74
2022/04/02 14:13:01;;;;;;;;;5.00;3.25;;;;;;;;5060214;28;45336;-74
2022/04/02 14:15:33;;;;;;;;;7.00;4.50;;;;;;;;5075582;27;46099;-74
2022/04/02 14:18:02;;;;;;;;;6.00;6.00;;;;;;;;5061014;28;45402;-73
2022/04/02 14:20:27;;;;;;;;;8.25;6.50;;;;;;;;5071196;27;45621;-74
2022/04/02 14:22:53;;;;;;;;;7.50;6.50;;;;;;;;5071112;28;45364;-74
2022/04/02 14:25:42;;;;;;;;;7.00;7.00;;;;;;;;5061267;28;45617;-75
2022/04/02 14:28:27;;;;;;;;;6.00;6.00;;;;;;;;5050221;28;45305;-74
2022/04/02 14:30:58;;;;;;;;;8.25;7.00;;;;;;;;4976546;28;45443;-75
2022/04/02 14:33:30;;;;;;;;;6.25;6.25;;;;;;;;4986031;28;45568;-74
2022/04/02 14:36:13;;;;;;;;;3.00;3.00;;;;;;;;4990293;28;46126;-75
2022/04/02 14:38:57;;;;;;;;;5.50;5.50;;;;;;;;4990722;28;45373;-73
2022/04/02 14:41:34;;;;;;;;;8.25;7.50;;;;;;;;4991170;28;45600;-73
2022/04/02 14:44:08;;;;;;;;;5.75;5.75;;;;;;;;4991303;28;45652;-74
2022/04/02 14:46:34;;;;;;;;;7.75;5.00;;;;;;;;4991111;28;47074;-73
2022/04/02 14:49:17;;;;;;;;;8.25;8.25;;;;;;;;4991860;28;45605;-74
2022/04/02 14:51:51;;;;;;;;;9.00;9.00;;;;;;;;4979523;28;45574;-74
2022/04/02 14:54:23;;;;;;;;;8.00;7.00;;;;;;;;4991322;28;45370;-74